sensor_id;sensor_type;location;lat;lon;timestamp;temperature;humidity
21834;DHT22;11079;51.092;3.458;2022-09-09T00:01:20;15.90;99.90
21834;DHT22;11079;51.092;3.458;2022-09-09T00:04:01;15.90;99.90
21834;DHT22;11079;51.092;3.458;2022-09-09T00:15:19;15.80;99.90
21834;DHT22;11079;51.092;3.458;2022-09-09T00:21:19;15.70;99.90
21834;DHT22;11079;51.092;3.458;2022-09-09T00:23:56;15.70;99.90
21834;DHT22;11079;51.092;3.458;2022-09-09T00:33:00;15.80;99.90
21834;DHT22;11079;51.092;3.458;2022-09-09T00:38:39;15.60;99.90
21834;DHT22;11079;51.092;3.458;2022-09-09T00:41:11;15.70;99.90
21834;DHT22;11079;51.092;3.458;2022-09-09T00:43:41;15.60;99.90
21834;DHT22;11079;51.092;3.458;2022-09-09T00:57:40;15.70;99.90
21834;DHT22;11079;51.092;3.458;2022-09-09T01:00:24;15.70;99.90
21834;DHT22;11079;51.092;3.458;2022-09-09T01:06:00;15.50;99.90
21834;DHT22;11079;51.092;3.458;2022-09-09T01:11:01;15.60;99.90
21834;DHT22;11079;51.092;3.458;2022-09-09T01:13:35;15.50;99.90
21834;DHT22;11079;51.092;3.458;2022-09-09T01:16:07;15.50;99.90
21834;DHT22;11079;51.092;3.458;2022-09-09T01:18:49;15.40;99.90
21834;DHT22;11079;51.092;3.458;2022-09-09T01:26:35;15.20;99.90
21834;DHT22;11079;51.092;3.458;2022-09-09T01:29:15;15.40;99.90
21834;DHT22;11079;51.092;3.458;2022-09-09T01:31:53;15.40;99.90
21834;DHT22;11079;51.092;3.458;2022-09-09T01:34:36;15.40;99.90
21834;DHT22;11079;51.092;3.458;2022-09-09T01:37:08;15.40;99.90
21834;DHT22;11079;51.092;3.458;2022-09-09T01:39:42;15.50;99.90
21834;DHT22;11079;51.092;3.458;2022-09-09T01:42:13;15.50;99.90
21834;DHT22;11079;51.092;3.458;2022-09-09T01:44:40;15.40;99.90
21834;DHT22;11079;51.092;3.458;2022-09-09T01:47:06;15.40;99.90
21834;DHT22;11079;51.092;3.458;2022-09-09T01:49:32;15.40;99.90
21834;DHT22;11079;51.092;3.458;2022-09-09T01:51:58;15.50;99.90
21834;DHT22;11079;51.092;3.458;2022-09-09T01:54:27;15.50;99.90
21834;DHT22;11079;51.092;3.458;2022-09-09T02:03:20;15.50;99.90
21834;DHT22;11079;51.092;3.458;2022-09-09T02:06:25;15.60;99.90
21834;DHT22;11079;51.092;3.458;2022-09-09T02:08:55;15.70;99.90
21834;DHT22;11079;51.092;3.458;2022-09-09T02:11:23;15.70;99.90
21834;DHT22;11079;51.092;3.458;2022-09-09T02:13:54;15.70;99.90
21834;DHT22;11079;51.092;3.458;2022-09-09T02:16:34;15.60;99.90
21834;DHT22;11079;51.092;3.458;2022-09-09T02:19:32;15.60;99.90
21834;DHT22;11079;51.092;3.458;2022-09-09T02:22:01;15.70;99.90
21834;DHT22;11079;51.092;3.458;2022-09-09T02:24:32;15.60;99.90
21834;DHT22;11079;51.092;3.458;2022-09-09T02:27:04;15.70;99.90
21834;DHT22;11079;51.092;3.458;2022-09-09T02:29:35;15.60;99.90
21834;DHT22;11079;51.092;3.458;2022-09-09T02:32:06;15.60;99.90
21834;DHT22;11079;51.092;3.458;2022-09-09T02:34:36;15.80;99.90
21834;DHT22;11079;51.092;3.458;2022-09-09T02:37:06;15.80;99.90
21834;DHT22;11079;51.092;3.458;2022-09-09T02:39:33;15.80;99.90
21834;DHT22;11079;51.092;3.458;2022-09-09T02:41:59;15.90;99.90
21834;DHT22;11079;51.092;3.458;2022-09-09T02:44:25;15.80;99.90
21834;DHT22;11079;51.092;3.458;2022-09-09T02:55:28;15.80;99.90
21834;DHT22;11079;51.092;3.458;2022-09-09T02:57:58;15.70;99.90
21834;DHT22;11079;51.092;3.458;2022-09-09T03:00:26;15.70;99.90
21834;DHT22;11079;51.092;3.458;2022-09-09T03:02:54;15.70;99.90
21834;DHT22;11079;51.092;3.458;2022-09-09T03:05:21;15.80;99.90
21834;DHT22;11079;51.092;3.458;2022-09-09T03:07:48;15.80;99.90
21834;DHT22;11079;51.092;3.458;2022-09-09T03:10:16;15.90;99.90
21834;DHT22;11079;51.092;3.458;2022-09-09T03:12:43;15.80;99.90
21834;DHT22;11079;51.092;3.458;2022-09-09T03:15:10;15.90;99.90
21834;DHT22;11079;51.092;3.458;2022-09-09T03:17:39;15.90;99.90
21834;DHT22;11079;51.092;3.458;2022-09-09T03:20:05;15.90;99.90
21834;DHT22;11079;51.092;3.458;2022-09-09T03:22:31;15.90;99.90
21834;DHT22;11079;51.092;3.458;2022-09-09T03:24:57;15.80;99.90
21834;DHT22;11079;51.092;3.458;2022-09-09T03:27:22;15.80;99.90
21834;DHT22;11079;51.092;3.458;2022-09-09T03:29:48;15.80;99.90
21834;DHT22;11079;51.092;3.458;2022-09-09T03:32:17;15.80;99.90
21834;DHT22;11079;51.092;3.458;2022-09-09T03:34:43;15.70;99.90
21834;DHT22;11079;51.092;3.458;2022-09-09T03:37:09;15.70;99.90
21834;DHT22;11079;51.092;3.458;2022-09-09T03:39:35;15.80;99.90
21834;DHT22;11079;51.092;3.458;2022-09-09T03:42:01;15.90;99.90
21834;DHT22;11079;51.092;3.458;2022-09-09T03:44:30;15.80;99.90
21834;DHT22;11079;51.092;3.458;2022-09-09T03:46:55;15.90;99.90
21834;DHT22;11079;51.092;3.458;2022-09-09T03:49:21;15.90;99.90
21834;DHT22;11079;51.092;3.458;2022-09-09T03:51:48;15.90;99.90
21834;DHT22;11079;51.092;3.458;2022-09-09T03:54:14;15.90;99.90
21834;DHT22;11079;51.092;3.458;2022-09-09T03:56:40;15.80;99.90
21834;DHT22;11079;51.092;3.458;2022-09-09T03:59:10;16.00;99.90
21834;DHT22;11079;51.092;3.458;2022-09-09T04:01:35;15.90;99.90
21834;DHT22;11079;51.092;3.458;2022-09-09T04:04:01;15.90;99.90
21834;DHT22;11079;51.092;3.458;2022-09-09T04:06:29;15.90;99.90
21834;DHT22;11079;51.092;3.458;2022-09-09T04:08:55;15.90;99.90
21834;DHT22;11079;51.092;3.458;2022-09-09T04:11:21;15.90;99.90
21834;DHT22;11079;51.092;3.458;2022-09-09T04:13:47;15.80;99.90
21834;DHT22;11079;51.092;3.458;2022-09-09T04:16:16;15.80;99.90
21834;DHT22;11079;51.092;3.458;2022-09-09T04:18:42;15.80;99.90
21834;DHT22;11079;51.092;3.458;2022-09-09T04:21:10;15.70;99.90
21834;DHT22;11079;51.092;3.458;2022-09-09T04:24:15;15.60;99.90
21834;DHT22;11079;51.092;3.458;2022-09-09T04:26:41;15.60;99.90
21834;DHT22;11079;51.092;3.458;2022-09-09T04:29:07;15.60;99.90
21834;DHT22;11079;51.092;3.458;2022-09-09T04:31:34;15.50;99.90
21834;DHT22;11079;51.092;3.458;2022-09-09T04:34:01;15.30;99.90
21834;DHT22;11079;51.092;3.458;2022-09-09T04:36:32;15.20;99.90
21834;DHT22;11079;51.092;3.458;2022-09-09T04:38:58;15.20;99.90
21834;DHT22;11079;51.092;3.458;2022-09-09T04:41:24;15.20;99.90
21834;DHT22;11079;51.092;3.458;2022-09-09T04:43:49;15.20;99.90
21834;DHT22;11079;51.092;3.458;2022-09-09T04:46:15;15.20;99.90
21834;DHT22;11079;51.092;3.458;2022-09-09T04:48:58;15.20;99.90
21834;DHT22;11079;51.092;3.458;2022-09-09T04:51:25;15.10;99.90
21834;DHT22;11079;51.092;3.458;2022-09-09T04:53:53;15.10;99.90
21834;DHT22;11079;51.092;3.458;2022-09-09T04:56:19;15.20;99.90
21834;DHT22;11079;51.092;3.458;2022-09-09T04:59:01;15.30;99.90
21834;DHT22;11079;51.092;3.458;2022-09-09T05:01:29;15.20;99.90
21834;DHT22;11079;51.092;3.458;2022-09-09T05:03:54;15.20;99.90
21834;DHT22;11079;51.092;3.458;2022-09-09T05:06:37;15.20;99.90
21834;DHT22;11079;51.092;3.458;2022-09-09T05:09:04;15.20;99.90
21834;DHT22;11079;51.092;3.458;2022-09-09T05:11:35;15.20;99.90
21834;DHT22;11079;51.092;3.458;2022-09-09T05:14:02;15.10;99.90
21834;DHT22;11079;51.092;3.458;2022-09-09T05:16:28;15.20;99.90
21834;DHT22;11079;51.092;3.458;2022-09-09T05:18:53;15.20;99.90
21834;DHT22;11079;51.092;3.458;2022-09-09T05:21:21;15.20;99.90
21834;DHT22;11079;51.092;3.458;2022-09-09T05:23:49;15.10;99.90
21834;DHT22;11079;51.092;3.458;2022-09-09T05:26:18;15.10;99.90
21834;DHT22;11079;51.092;3.458;2022-09-09T05:28:45;15.10;99.90
21834;DHT22;11079;51.092;3.458;2022-09-09T05:31:11;15.10;99.90
21834;DHT22;11079;51.092;3.458;2022-09-09T05:33:39;15.10;99.90
21834;DHT22;11079;51.092;3.458;2022-09-09T05:36:10;15.20;99.90
21834;DHT22;11079;51.092;3.458;2022-09-09T05:38:38;15.30;99.90
21834;DHT22;11079;51.092;3.458;2022-09-09T05:41:05;15.20;99.90
21834;DHT22;11079;51.092;3.458;2022-09-09T05:43:31;15.10;99.90
21834;DHT22;11079;51.092;3.458;2022-09-09T05:46:06;15.10;99.90
21834;DHT22;11079;51.092;3.458;2022-09-09T05:48:41;15.20;99.90
21834;DHT22;11079;51.092;3.458;2022-09-09T05:51:12;15.30;99.90
21834;DHT22;11079;51.092;3.458;2022-09-09T05:53:41;15.30;99.90
21834;DHT22;11079;51.092;3.458;2022-09-09T05:56:11;15.20;99.90
21834;DHT22;11079;51.092;3.458;2022-09-09T05:58:38;15.20;99.90
21834;DHT22;11079;51.092;3.458;2022-09-09T06:01:27;15.20;99.90
21834;DHT22;11079;51.092;3.458;2022-09-09T06:03:54;15.10;99.90
21834;DHT22;11079;51.092;3.458;2022-09-09T06:06:25;15.10;99.90
21834;DHT22;11079;51.092;3.458;2022-09-09T06:08:53;15.20;99.90
21834;DHT22;11079;51.092;3.458;2022-09-09T06:11:22;15.20;99.90
21834;DHT22;11079;51.092;3.458;2022-09-09T06:13:48;15.30;99.90
21834;DHT22;11079;51.092;3.458;2022-09-09T06:16:18;15.30;99.90
21834;DHT22;11079;51.092;3.458;2022-09-09T06:18:43;15.30;99.90
21834;DHT22;11079;51.092;3.458;2022-09-09T06:21:15;15.30;99.90
21834;DHT22;11079;51.092;3.458;2022-09-09T06:23:41;15.40;99.90
21834;DHT22;11079;51.092;3.458;2022-09-09T06:28:45;15.40;99.90
21834;DHT22;11079;51.092;3.458;2022-09-09T06:31:13;15.50;99.90
21834;DHT22;11079;51.092;3.458;2022-09-09T06:33:41;15.60;99.90
21834;DHT22;11079;51.092;3.458;2022-09-09T06:36:14;15.50;99.90
21834;DHT22;11079;51.092;3.458;2022-09-09T06:38:40;15.50;99.90
21834;DHT22;11079;51.092;3.458;2022-09-09T06:41:09;15.50;99.90
21834;DHT22;11079;51.092;3.458;2022-09-09T06:43:35;15.50;99.90
21834;DHT22;11079;51.092;3.458;2022-09-09T06:46:04;15.60;99.90
21834;DHT22;11079;51.092;3.458;2022-09-09T06:48:30;15.70;99.90
21834;DHT22;11079;51.092;3.458;2022-09-09T06:51:10;15.80;99.90
21834;DHT22;11079;51.092;3.458;2022-09-09T06:53:41;15.90;99.90
21834;DHT22;11079;51.092;3.458;2022-09-09T06:58:36;15.90;99.90
21834;DHT22;11079;51.092;3.458;2022-09-09T07:01:05;16.00;99.90
21834;DHT22;11079;51.092;3.458;2022-09-09T07:03:31;16.00;99.90
21834;DHT22;11079;51.092;3.458;2022-09-09T07:05:57;15.90;99.90
21834;DHT22;11079;51.092;3.458;2022-09-09T07:08:24;15.80;99.90
21834;DHT22;11079;51.092;3.458;2022-09-09T07:10:51;15.70;99.90
21834;DHT22;11079;51.092;3.458;2022-09-09T07:13:24;15.80;99.90
21834;DHT22;11079;51.092;3.458;2022-09-09T07:15:51;15.70;99.90
21834;DHT22;11079;51.092;3.458;2022-09-09T07:18:17;15.80;99.90
21834;DHT22;11079;51.092;3.458;2022-09-09T07:20:43;15.80;99.90
21834;DHT22;11079;51.092;3.458;2022-09-09T07:23:17;15.80;99.90
21834;DHT22;11079;51.092;3.458;2022-09-09T07:25:46;15.80;99.90
21834;DHT22;11079;51.092;3.458;2022-09-09T07:28:13;15.80;99.90
21834;DHT22;11079;51.092;3.458;2022-09-09T07:30:39;15.80;99.90
21834;DHT22;11079;51.092;3.458;2022-09-09T07:33:05;15.80;99.90
21834;DHT22;11079;51.092;3.458;2022-09-09T07:35:31;15.70;99.90
21834;DHT22;11079;51.092;3.458;2022-09-09T07:37:57;15.60;99.90
21834;DHT22;11079;51.092;3.458;2022-09-09T07:40:24;15.70;99.90
21834;DHT22;11079;51.092;3.458;2022-09-09T07:42:50;15.80;99.90
21834;DHT22;11079;51.092;3.458;2022-09-09T07:45:15;15.70;99.90
21834;DHT22;11079;51.092;3.458;2022-09-09T07:47:41;15.70;99.90
21834;DHT22;11079;51.092;3.458;2022-09-09T07:50:09;15.70;99.90
21834;DHT22;11079;51.092;3.458;2022-09-09T07:52:35;15.70;99.90
21834;DHT22;11079;51.092;3.458;2022-09-09T07:55:01;15.70;99.90
21834;DHT22;11079;51.092;3.458;2022-09-09T07:57:30;15.70;99.90
21834;DHT22;11079;51.092;3.458;2022-09-09T07:59:56;15.70;99.90
21834;DHT22;11079;51.092;3.458;2022-09-09T08:02:23;15.80;99.90
21834;DHT22;11079;51.092;3.458;2022-09-09T08:04:50;15.70;99.90
21834;DHT22;11079;51.092;3.458;2022-09-09T08:07:17;15.70;99.90
21834;DHT22;11079;51.092;3.458;2022-09-09T08:09:42;15.70;99.90
21834;DHT22;11079;51.092;3.458;2022-09-09T08:12:09;15.70;99.90
21834;DHT22;11079;51.092;3.458;2022-09-09T08:14:36;15.70;99.90
21834;DHT22;11079;51.092;3.458;2022-09-09T08:17:01;15.80;99.90
21834;DHT22;11079;51.092;3.458;2022-09-09T08:19:27;15.80;99.90
21834;DHT22;11079;51.092;3.458;2022-09-09T08:21:55;15.80;99.90
21834;DHT22;11079;51.092;3.458;2022-09-09T08:24:21;15.90;99.90
21834;DHT22;11079;51.092;3.458;2022-09-09T08:26:49;16.00;99.90
21834;DHT22;11079;51.092;3.458;2022-09-09T08:29:15;16.00;99.90
21834;DHT22;11079;51.092;3.458;2022-09-09T08:31:47;16.10;99.90
21834;DHT22;11079;51.092;3.458;2022-09-09T08:34:14;16.20;99.90
21834;DHT22;11079;51.092;3.458;2022-09-09T08:36:42;16.30;99.90
21834;DHT22;11079;51.092;3.458;2022-09-09T08:39:10;16.30;99.90
21834;DHT22;11079;51.092;3.458;2022-09-09T08:44:21;16.20;99.90
21834;DHT22;11079;51.092;3.458;2022-09-09T08:46:57;16.40;99.90
21834;DHT22;11079;51.092;3.458;2022-09-09T08:52:19;17.80;99.90
21834;DHT22;11079;51.092;3.458;2022-09-09T08:54:47;19.00;99.90
21834;DHT22;11079;51.092;3.458;2022-09-09T08:57:21;19.20;99.90
21834;DHT22;11079;51.092;3.458;2022-09-09T08:59:55;18.80;99.90
21834;DHT22;11079;51.092;3.458;2022-09-09T09:02:36;18.40;99.90
21834;DHT22;11079;51.092;3.458;2022-09-09T09:05:13;18.20;99.90
21834;DHT22;11079;51.092;3.458;2022-09-09T09:07:54;18.10;99.90
21834;DHT22;11079;51.092;3.458;2022-09-09T09:10:30;17.80;99.90
21834;DHT22;11079;51.092;3.458;2022-09-09T09:13:03;17.50;99.90
21834;DHT22;11079;51.092;3.458;2022-09-09T09:15:44;17.50;99.90
21834;DHT22;11079;51.092;3.458;2022-09-09T09:18:23;17.90;99.90
21834;DHT22;11079;51.092;3.458;2022-09-09T09:23:55;18.50;99.90
21834;DHT22;11079;51.092;3.458;2022-09-09T09:26:30;18.90;99.90
21834;DHT22;11079;51.092;3.458;2022-09-09T09:29:14;19.00;99.90
21834;DHT22;11079;51.092;3.458;2022-09-09T09:31:58;19.50;99.90
21834;DHT22;11079;51.092;3.458;2022-09-09T09:34:27;19.60;99.90
21834;DHT22;11079;51.092;3.458;2022-09-09T09:37:23;19.40;99.90
21834;DHT22;11079;51.092;3.458;2022-09-09T09:39:53;18.90;99.90
21834;DHT22;11079;51.092;3.458;2022-09-09T09:42:19;18.80;99.90
21834;DHT22;11079;51.092;3.458;2022-09-09T09:44:48;18.60;99.90
21834;DHT22;11079;51.092;3.458;2022-09-09T09:47:16;18.60;99.90
21834;DHT22;11079;51.092;3.458;2022-09-09T09:49:59;18.50;99.90
21834;DHT22;11079;51.092;3.458;2022-09-09T09:52:27;18.40;99.90
21834;DHT22;11079;51.092;3.458;2022-09-09T09:54:55;18.40;99.90
21834;DHT22;11079;51.092;3.458;2022-09-09T09:57:29;18.40;99.90
21834;DHT22;11079;51.092;3.458;2022-09-09T10:00:13;18.70;99.90
21834;DHT22;11079;51.092;3.458;2022-09-09T10:02:42;18.90;99.90
21834;DHT22;11079;51.092;3.458;2022-09-09T10:05:17;18.90;99.90
21834;DHT22;11079;51.092;3.458;2022-09-09T10:07:44;18.80;99.90
21834;DHT22;11079;51.092;3.458;2022-09-09T10:10:20;18.90;99.90
21834;DHT22;11079;51.092;3.458;2022-09-09T10:13:02;19.20;99.90
21834;DHT22;11079;51.092;3.458;2022-09-09T10:18:05;19.50;99.90
21834;DHT22;11079;51.092;3.458;2022-09-09T10:20:54;19.90;99.90
21834;DHT22;11079;51.092;3.458;2022-09-09T10:37:17;20.00;99.90
21834;DHT22;11079;51.092;3.458;2022-09-09T10:39:54;19.80;99.90
21834;DHT22;11079;51.092;3.458;2022-09-09T10:42:30;19.70;99.90
21834;DHT22;11079;51.092;3.458;2022-09-09T10:47:47;19.90;99.90
21834;DHT22;11079;51.092;3.458;2022-09-09T10:53:52;22.80;99.90
21834;DHT22;11079;51.092;3.458;2022-09-09T10:56:28;22.40;99.90
21834;DHT22;11079;51.092;3.458;2022-09-09T10:59:09;21.80;99.90
21834;DHT22;11079;51.092;3.458;2022-09-09T11:01:43;21.80;99.90
21834;DHT22;11079;51.092;3.458;2022-09-09T11:04:32;21.40;99.90
21834;DHT22;11079;51.092;3.458;2022-09-09T11:07:08;21.30;99.90
21834;DHT22;11079;51.092;3.458;2022-09-09T11:09:47;21.20;99.90
21834;DHT22;11079;51.092;3.458;2022-09-09T11:12:22;21.30;99.90
21834;DHT22;11079;51.092;3.458;2022-09-09T11:14:54;21.00;99.90
21834;DHT22;11079;51.092;3.458;2022-09-09T11:17:47;20.80;99.90
21834;DHT22;11079;51.092;3.458;2022-09-09T11:20:23;20.30;99.90
21834;DHT22;11079;51.092;3.458;2022-09-09T11:23:20;20.40;99.90
21834;DHT22;11079;51.092;3.458;2022-09-09T11:25:53;20.20;99.90
21834;DHT22;11079;51.092;3.458;2022-09-09T11:42:23;21.30;99.90
21834;DHT22;11079;51.092;3.458;2022-09-09T11:44:51;21.40;99.90
21834;DHT22;11079;51.092;3.458;2022-09-09T11:47:28;21.20;99.90
21834;DHT22;11079;51.092;3.458;2022-09-09T11:50:31;21.40;99.90
21834;DHT22;11079;51.092;3.458;2022-09-09T11:53:25;21.60;99.90
21834;DHT22;11079;51.092;3.458;2022-09-09T11:56:08;22.60;99.90
21834;DHT22;11079;51.092;3.458;2022-09-09T11:58:43;23.20;99.90
21834;DHT22;11079;51.092;3.458;2022-09-09T12:01:33;23.80;99.90
21834;DHT22;11079;51.092;3.458;2022-09-09T12:19:40;22.10;99.90
21834;DHT22;11079;51.092;3.458;2022-09-09T12:24:37;21.40;99.90
21834;DHT22;11079;51.092;3.458;2022-09-09T12:27:29;21.20;99.90
21834;DHT22;11079;51.092;3.458;2022-09-09T12:30:10;20.60;99.90
21834;DHT22;11079;51.092;3.458;2022-09-09T12:32:36;20.20;99.90
21834;DHT22;11079;51.092;3.458;2022-09-09T12:37:37;19.90;99.90
21834;DHT22;11079;51.092;3.458;2022-09-09T12:40:21;19.90;99.90
21834;DHT22;11079;51.092;3.458;2022-09-09T12:42:48;20.20;99.90
21834;DHT22;11079;51.092;3.458;2022-09-09T12:45:19;21.00;99.90
21834;DHT22;11079;51.092;3.458;2022-09-09T12:50:24;21.80;99.90
21834;DHT22;11079;51.092;3.458;2022-09-09T12:52:55;21.60;99.90
21834;DHT22;11079;51.092;3.458;2022-09-09T12:55:27;21.50;99.90
21834;DHT22;11079;51.092;3.458;2022-09-09T12:58:03;21.10;99.90
21834;DHT22;11079;51.092;3.458;2022-09-09T13:00:33;21.10;99.90
21834;DHT22;11079;51.092;3.458;2022-09-09T13:03:02;21.10;99.90
21834;DHT22;11079;51.092;3.458;2022-09-09T13:05:35;21.30;99.90
21834;DHT22;11079;51.092;3.458;2022-09-09T13:08:08;21.50;99.90
21834;DHT22;11079;51.092;3.458;2022-09-09T13:10:48;22.40;99.90
21834;DHT22;11079;51.092;3.458;2022-09-09T13:13:38;22.80;99.90
21834;DHT22;11079;51.092;3.458;2022-09-09T13:16:06;23.80;99.90
21834;DHT22;11079;51.092;3.458;2022-09-09T13:18:35;23.80;99.90
21834;DHT22;11079;51.092;3.458;2022-09-09T13:21:04;23.50;99.90
21834;DHT22;11079;51.092;3.458;2022-09-09T13:23:31;22.90;99.90
21834;DHT22;11079;51.092;3.458;2022-09-09T13:26:24;22.60;99.90
21834;DHT22;11079;51.092;3.458;2022-09-09T13:28:52;22.40;99.90
21834;DHT22;11079;51.092;3.458;2022-09-09T13:31:38;21.90;99.90
21834;DHT22;11079;51.092;3.458;2022-09-09T13:34:27;21.10;99.90
21834;DHT22;11079;51.092;3.458;2022-09-09T13:36:57;20.40;99.90
21834;DHT22;11079;51.092;3.458;2022-09-09T13:39:23;19.80;99.90
21834;DHT22;11079;51.092;3.458;2022-09-09T13:41:49;19.10;99.90
21834;DHT22;11079;51.092;3.458;2022-09-09T13:44:26;18.90;99.90
21834;DHT22;11079;51.092;3.458;2022-09-09T13:49:30;18.80;99.90
21834;DHT22;11079;51.092;3.458;2022-09-09T13:54:33;18.60;99.90
21834;DHT22;11079;51.092;3.458;2022-09-09T13:56:58;18.80;99.90
21834;DHT22;11079;51.092;3.458;2022-09-09T13:59:24;19.20;99.90
21834;DHT22;11079;51.092;3.458;2022-09-09T14:01:52;19.60;99.90
21834;DHT22;11079;51.092;3.458;2022-09-09T14:04:19;19.90;99.90
21834;DHT22;11079;51.092;3.458;2022-09-09T14:06:47;21.10;99.90
21834;DHT22;11079;51.092;3.458;2022-09-09T14:09:15;21.80;99.90
21834;DHT22;11079;51.092;3.458;2022-09-09T14:11:42;21.90;99.90
21834;DHT22;11079;51.092;3.458;2022-09-09T14:14:08;21.80;99.90
21834;DHT22;11079;51.092;3.458;2022-09-09T14:16:34;21.10;99.90
21834;DHT22;11079;51.092;3.458;2022-09-09T14:19:01;20.80;99.90
21834;DHT22;11079;51.092;3.458;2022-09-09T14:21:27;20.60;99.90
21834;DHT22;11079;51.092;3.458;2022-09-09T14:23:53;20.10;99.90
21834;DHT22;11079;51.092;3.458;2022-09-09T14:26:20;19.70;99.90
21834;DHT22;11079;51.092;3.458;2022-09-09T14:28:47;19.20;99.90
21834;DHT22;11079;51.092;3.458;2022-09-09T14:31:12;18.90;99.90
21834;DHT22;11079;51.092;3.458;2022-09-09T14:33:43;18.80;99.90
21834;DHT22;11079;51.092;3.458;2022-09-09T14:36:09;18.90;99.90
21834;DHT22;11079;51.092;3.458;2022-09-09T14:38:37;18.90;99.90
21834;DHT22;11079;51.092;3.458;2022-09-09T14:41:10;19.00;99.90
21834;DHT22;11079;51.092;3.458;2022-09-09T14:43:38;19.10;99.90
21834;DHT22;11079;51.092;3.458;2022-09-09T14:46:10;19.30;99.90
21834;DHT22;11079;51.092;3.458;2022-09-09T14:48:36;19.50;99.90
21834;DHT22;11079;51.092;3.458;2022-09-09T14:51:06;19.90;99.90
21834;DHT22;11079;51.092;3.458;2022-09-09T14:53:32;20.30;99.90
21834;DHT22;11079;51.092;3.458;2022-09-09T14:56:08;20.30;99.90
21834;DHT22;11079;51.092;3.458;2022-09-09T14:58:34;20.30;99.90
21834;DHT22;11079;51.092;3.458;2022-09-09T15:01:11;20.20;99.90
21834;DHT22;11079;51.092;3.458;2022-09-09T15:03:38;20.50;99.90
21834;DHT22;11079;51.092;3.458;2022-09-09T15:06:09;20.70;99.90
21834;DHT22;11079;51.092;3.458;2022-09-09T15:08:36;20.70;99.90
21834;DHT22;11079;51.092;3.458;2022-09-09T15:11:04;20.70;99.90
21834;DHT22;11079;51.092;3.458;2022-09-09T15:13:30;20.70;99.90
21834;DHT22;11079;51.092;3.458;2022-09-09T15:16:02;20.40;99.90
21834;DHT22;11079;51.092;3.458;2022-09-09T15:18:28;20.40;99.90
21834;DHT22;11079;51.092;3.458;2022-09-09T15:20:54;20.30;99.90
21834;DHT22;11079;51.092;3.458;2022-09-09T15:23:20;20.00;99.90
21834;DHT22;11079;51.092;3.458;2022-09-09T15:25:55;20.10;99.90
21834;DHT22;11079;51.092;3.458;2022-09-09T15:28:22;20.00;99.90
21834;DHT22;11079;51.092;3.458;2022-09-09T15:30:52;19.90;99.90
21834;DHT22;11079;51.092;3.458;2022-09-09T15:33:19;20.10;99.90
21834;DHT22;11079;51.092;3.458;2022-09-09T15:35:45;20.40;99.90
21834;DHT22;11079;51.092;3.458;2022-09-09T15:38:11;20.60;99.90
21834;DHT22;11079;51.092;3.458;2022-09-09T15:40:39;20.70;99.90
21834;DHT22;11079;51.092;3.458;2022-09-09T15:43:06;20.70;99.90
21834;DHT22;11079;51.092;3.458;2022-09-09T15:45:33;20.90;99.90
21834;DHT22;11079;51.092;3.458;2022-09-09T15:48:03;20.90;99.90
21834;DHT22;11079;51.092;3.458;2022-09-09T15:50:29;21.20;99.90
21834;DHT22;11079;51.092;3.458;2022-09-09T15:52:59;21.10;99.90
21834;DHT22;11079;51.092;3.458;2022-09-09T15:55:24;21.20;99.90
21834;DHT22;11079;51.092;3.458;2022-09-09T15:57:51;21.20;99.90
21834;DHT22;11079;51.092;3.458;2022-09-09T16:00:21;21.10;99.90
21834;DHT22;11079;51.092;3.458;2022-09-09T16:02:48;21.20;99.90
21834;DHT22;11079;51.092;3.458;2022-09-09T16:05:13;21.10;99.90
21834;DHT22;11079;51.092;3.458;2022-09-09T16:07:39;21.10;99.90
21834;DHT22;11079;51.092;3.458;2022-09-09T16:10:08;20.90;99.90
21834;DHT22;11079;51.092;3.458;2022-09-09T16:12:33;21.00;99.90
21834;DHT22;11079;51.092;3.458;2022-09-09T16:14:59;20.80;99.90
21834;DHT22;11079;51.092;3.458;2022-09-09T16:17:25;20.60;99.90
21834;DHT22;11079;51.092;3.458;2022-09-09T16:19:50;20.50;99.90
21834;DHT22;11079;51.092;3.458;2022-09-09T16:22:16;20.50;99.90
21834;DHT22;11079;51.092;3.458;2022-09-09T16:24:43;20.30;99.90
21834;DHT22;11079;51.092;3.458;2022-09-09T16:27:10;20.10;99.90
21834;DHT22;11079;51.092;3.458;2022-09-09T16:29:36;20.10;99.90
21834;DHT22;11079;51.092;3.458;2022-09-09T16:32:02;19.90;99.90
21834;DHT22;11079;51.092;3.458;2022-09-09T16:34:28;19.80;99.90
21834;DHT22;11079;51.092;3.458;2022-09-09T16:36:53;19.70;99.90
21834;DHT22;11079;51.092;3.458;2022-09-09T16:39:20;19.70;99.90
21834;DHT22;11079;51.092;3.458;2022-09-09T16:41:47;19.90;99.90
21834;DHT22;11079;51.092;3.458;2022-09-09T16:44:15;19.90;99.90
21834;DHT22;11079;51.092;3.458;2022-09-09T16:46:43;20.00;99.90
21834;DHT22;11079;51.092;3.458;2022-09-09T16:49:12;19.90;99.90
21834;DHT22;11079;51.092;3.458;2022-09-09T16:51:44;19.80;99.90
21834;DHT22;11079;51.092;3.458;2022-09-09T16:54:10;20.00;99.90
21834;DHT22;11079;51.092;3.458;2022-09-09T16:56:39;20.00;99.90
21834;DHT22;11079;51.092;3.458;2022-09-09T16:59:09;20.00;99.90
21834;DHT22;11079;51.092;3.458;2022-09-09T17:01:37;20.00;99.90
21834;DHT22;11079;51.092;3.458;2022-09-09T17:04:16;20.10;99.90
21834;DHT22;11079;51.092;3.458;2022-09-09T17:07:18;20.10;99.90
21834;DHT22;11079;51.092;3.458;2022-09-09T17:09:45;20.20;99.90
21834;DHT22;11079;51.092;3.458;2022-09-09T17:12:10;20.30;99.90
21834;DHT22;11079;51.092;3.458;2022-09-09T17:14:54;20.30;99.90
21834;DHT22;11079;51.092;3.458;2022-09-09T17:17:21;20.20;99.90
21834;DHT22;11079;51.092;3.458;2022-09-09T17:19:46;20.20;99.90
21834;DHT22;11079;51.092;3.458;2022-09-09T17:22:12;20.20;99.90
21834;DHT22;11079;51.092;3.458;2022-09-09T17:24:38;20.00;99.90
21834;DHT22;11079;51.092;3.458;2022-09-09T17:27:04;19.70;99.90
21834;DHT22;11079;51.092;3.458;2022-09-09T17:29:30;19.60;99.90
21834;DHT22;11079;51.092;3.458;2022-09-09T17:31:55;19.60;99.90
21834;DHT22;11079;51.092;3.458;2022-09-09T17:34:35;19.50;99.90
21834;DHT22;11079;51.092;3.458;2022-09-09T17:37:01;19.50;99.90
21834;DHT22;11079;51.092;3.458;2022-09-09T17:39:31;19.40;99.90
21834;DHT22;11079;51.092;3.458;2022-09-09T17:42:16;19.40;99.90
21834;DHT22;11079;51.092;3.458;2022-09-09T17:44:42;19.30;99.90
21834;DHT22;11079;51.092;3.458;2022-09-09T17:47:07;19.30;99.90
21834;DHT22;11079;51.092;3.458;2022-09-09T17:49:33;19.30;99.90
21834;DHT22;11079;51.092;3.458;2022-09-09T17:51:59;19.30;99.90
21834;DHT22;11079;51.092;3.458;2022-09-09T17:54:27;19.30;99.90
21834;DHT22;11079;51.092;3.458;2022-09-09T17:56:56;19.30;99.90
21834;DHT22;11079;51.092;3.458;2022-09-09T17:59:24;19.30;99.90
21834;DHT22;11079;51.092;3.458;2022-09-09T18:01:50;19.20;99.90
21834;DHT22;11079;51.092;3.458;2022-09-09T18:04:18;19.20;99.90
21834;DHT22;11079;51.092;3.458;2022-09-09T18:06:47;19.20;99.90
21834;DHT22;11079;51.092;3.458;2022-09-09T18:09:16;19.00;99.90